sensor_id;sensor_type;location;lat;lon;timestamp;temperature;humidity
32907;DHT22;19259;51.590;5.320;2022-08-19T00:01:36;19.00;99.90
32907;DHT22;19259;51.590;5.320;2022-08-19T00:04:06;19.10;99.90
32907;DHT22;19259;51.590;5.320;2022-08-19T00:06:35;19.10;99.90
32907;DHT22;19259;51.590;5.320;2022-08-19T00:09:05;19.10;99.90
32907;DHT22;19259;51.590;5.320;2022-08-19T00:11:33;19.00;99.90
32907;DHT22;19259;51.590;5.320;2022-08-19T00:14:06;18.90;99.90
32907;DHT22;19259;51.590;5.320;2022-08-19T00:16:33;18.90;99.90
32907;DHT22;19259;51.590;5.320;2022-08-19T00:19:01;19.00;99.90
32907;DHT22;19259;51.590;5.320;2022-08-19T00:21:28;19.00;99.90
32907;DHT22;19259;51.590;5.320;2022-08-19T00:23:58;18.80;99.90
32907;DHT22;19259;51.590;5.320;2022-08-19T00:26:27;18.90;99.90
32907;DHT22;19259;51.590;5.320;2022-08-19T00:28:55;18.90;99.90
32907;DHT22;19259;51.590;5.320;2022-08-19T00:31:23;18.90;99.90
32907;DHT22;19259;51.590;5.320;2022-08-19T00:33:51;18.90;99.90
32907;DHT22;19259;51.590;5.320;2022-08-19T00:36:19;18.90;99.90
32907;DHT22;19259;51.590;5.320;2022-08-19T00:38:47;19.00;99.90
32907;DHT22;19259;51.590;5.320;2022-08-19T00:41:18;18.80;99.90
32907;DHT22;19259;51.590;5.320;2022-08-19T00:44:01;18.80;99.90
32907;DHT22;19259;51.590;5.320;2022-08-19T00:46:30;18.70;99.90
32907;DHT22;19259;51.590;5.320;2022-08-19T00:49:00;18.80;99.90
32907;DHT22;19259;51.590;5.320;2022-08-19T00:51:29;18.70;99.90
32907;DHT22;19259;51.590;5.320;2022-08-19T00:53:59;18.70;99.90
32907;DHT22;19259;51.590;5.320;2022-08-19T00:56:27;18.60;99.90
32907;DHT22;19259;51.590;5.320;2022-08-19T00:58:58;18.60;99.90
32907;DHT22;19259;51.590;5.320;2022-08-19T01:01:26;18.70;99.90
32907;DHT22;19259;51.590;5.320;2022-08-19T01:03:54;18.70;99.90
32907;DHT22;19259;51.590;5.320;2022-08-19T01:06:22;18.70;99.90
32907;DHT22;19259;51.590;5.320;2022-08-19T01:08:49;18.70;99.90
32907;DHT22;19259;51.590;5.320;2022-08-19T01:11:17;18.50;99.90
32907;DHT22;19259;51.590;5.320;2022-08-19T01:13:45;18.60;99.90
32907;DHT22;19259;51.590;5.320;2022-08-19T01:16:14;18.50;99.90
32907;DHT22;19259;51.590;5.320;2022-08-19T01:18:42;18.40;99.90
32907;DHT22;19259;51.590;5.320;2022-08-19T01:21:26;18.40;99.90
32907;DHT22;19259;51.590;5.320;2022-08-19T01:23:53;18.50;99.90
32907;DHT22;19259;51.590;5.320;2022-08-19T01:26:23;18.40;99.90
32907;DHT22;19259;51.590;5.320;2022-08-19T01:28:55;18.40;99.90
32907;DHT22;19259;51.590;5.320;2022-08-19T01:31:26;18.30;99.90
32907;DHT22;19259;51.590;5.320;2022-08-19T01:33:56;18.40;99.90
32907;DHT22;19259;51.590;5.320;2022-08-19T01:36:41;18.40;99.90
32907;DHT22;19259;51.590;5.320;2022-08-19T01:39:07;18.30;99.90
32907;DHT22;19259;51.590;5.320;2022-08-19T01:41:36;18.40;99.90
32907;DHT22;19259;51.590;5.320;2022-08-19T01:44:04;18.60;99.90
32907;DHT22;19259;51.590;5.320;2022-08-19T01:46:33;18.40;99.90
32907;DHT22;19259;51.590;5.320;2022-08-19T01:49:03;18.40;99.90
32907;DHT22;19259;51.590;5.320;2022-08-19T01:51:30;18.40;99.90
32907;DHT22;19259;51.590;5.320;2022-08-19T01:53:58;18.30;99.90
32907;DHT22;19259;51.590;5.320;2022-08-19T01:56:26;18.30;99.90
32907;DHT22;19259;51.590;5.320;2022-08-19T02:01:42;18.40;99.90
32907;DHT22;19259;51.590;5.320;2022-08-19T02:04:11;18.20;99.90
32907;DHT22;19259;51.590;5.320;2022-08-19T02:06:40;18.30;99.90
32907;DHT22;19259;51.590;5.320;2022-08-19T02:09:08;18.20;99.90
32907;DHT22;19259;51.590;5.320;2022-08-19T02:11:36;18.20;99.90
32907;DHT22;19259;51.590;5.320;2022-08-19T02:14:07;18.20;99.90
32907;DHT22;19259;51.590;5.320;2022-08-19T02:16:36;18.20;99.90
32907;DHT22;19259;51.590;5.320;2022-08-19T02:19:04;18.10;99.90
32907;DHT22;19259;51.590;5.320;2022-08-19T02:21:31;18.10;99.90
32907;DHT22;19259;51.590;5.320;2022-08-19T02:23:59;18.00;99.90
32907;DHT22;19259;51.590;5.320;2022-08-19T02:26:31;17.90;99.90
32907;DHT22;19259;51.590;5.320;2022-08-19T02:28:59;18.00;99.90
32907;DHT22;19259;51.590;5.320;2022-08-19T02:31:26;18.00;99.90
32907;DHT22;19259;51.590;5.320;2022-08-19T02:33:55;18.00;99.90
32907;DHT22;19259;51.590;5.320;2022-08-19T02:36:24;18.10;99.90
32907;DHT22;19259;51.590;5.320;2022-08-19T02:38:52;18.00;99.90
32907;DHT22;19259;51.590;5.320;2022-08-19T02:41:29;18.00;99.90
32907;DHT22;19259;51.590;5.320;2022-08-19T02:43:51;18.10;99.90
32907;DHT22;19259;51.590;5.320;2022-08-19T02:46:21;18.00;99.90
32907;DHT22;19259;51.590;5.320;2022-08-19T02:48:52;17.80;99.90
32907;DHT22;19259;51.590;5.320;2022-08-19T02:51:22;17.90;99.90
32907;DHT22;19259;51.590;5.320;2022-08-19T02:53:51;17.90;99.90
32907;DHT22;19259;51.590;5.320;2022-08-19T02:56:19;17.90;99.90
32907;DHT22;19259;51.590;5.320;2022-08-19T02:58:47;18.00;99.90
32907;DHT22;19259;51.590;5.320;2022-08-19T03:01:27;18.10;99.90
32907;DHT22;19259;51.590;5.320;2022-08-19T03:03:56;18.00;99.90
32907;DHT22;19259;51.590;5.320;2022-08-19T03:06:24;17.90;99.90
32907;DHT22;19259;51.590;5.320;2022-08-19T03:08:52;17.90;99.90
32907;DHT22;19259;51.590;5.320;2022-08-19T03:11:23;18.00;99.90
32907;DHT22;19259;51.590;5.320;2022-08-19T03:13:51;17.90;99.90
32907;DHT22;19259;51.590;5.320;2022-08-19T03:16:21;17.90;99.90
32907;DHT22;19259;51.590;5.320;2022-08-19T03:18:49;17.90;99.90
32907;DHT22;19259;51.590;5.320;2022-08-19T03:21:20;17.90;99.90
32907;DHT22;19259;51.590;5.320;2022-08-19T03:23:47;17.90;99.90
32907;DHT22;19259;51.590;5.320;2022-08-19T03:26:15;17.80;99.90
32907;DHT22;19259;51.590;5.320;2022-08-19T03:28:47;17.70;99.90
32907;DHT22;19259;51.590;5.320;2022-08-19T03:31:17;17.80;99.90
32907;DHT22;19259;51.590;5.320;2022-08-19T03:33:45;17.80;99.90
32907;DHT22;19259;51.590;5.320;2022-08-19T03:36:22;17.70;99.90
32907;DHT22;19259;51.590;5.320;2022-08-19T03:38:50;17.80;99.90
32907;DHT22;19259;51.590;5.320;2022-08-19T03:41:21;17.80;99.90
32907;DHT22;19259;51.590;5.320;2022-08-19T03:43:49;17.70;99.90
32907;DHT22;19259;51.590;5.320;2022-08-19T03:46:19;17.70;99.90
32907;DHT22;19259;51.590;5.320;2022-08-19T03:48:51;17.80;99.90
32907;DHT22;19259;51.590;5.320;2022-08-19T03:51:24;17.60;99.90
32907;DHT22;19259;51.590;5.320;2022-08-19T03:53:53;17.60;99.90
32907;DHT22;19259;51.590;5.320;2022-08-19T03:56:21;17.70;99.90
32907;DHT22;19259;51.590;5.320;2022-08-19T03:58:51;17.60;99.90
32907;DHT22;19259;51.590;5.320;2022-08-19T04:01:21;17.60;99.90
32907;DHT22;19259;51.590;5.320;2022-08-19T04:03:49;17.50;99.90
32907;DHT22;19259;51.590;5.320;2022-08-19T04:06:19;17.60;99.90
32907;DHT22;19259;51.590;5.320;2022-08-19T04:08:49;17.60;99.90
32907;DHT22;19259;51.590;5.320;2022-08-19T04:11:23;17.60;99.90
32907;DHT22;19259;51.590;5.320;2022-08-19T04:13:49;17.70;99.90
32907;DHT22;19259;51.590;5.320;2022-08-19T04:16:18;17.60;99.90
32907;DHT22;19259;51.590;5.320;2022-08-19T04:18:47;17.60;99.90
32907;DHT22;19259;51.590;5.320;2022-08-19T04:21:20;17.50;99.90
32907;DHT22;19259;51.590;5.320;2022-08-19T04:23:49;17.50;99.90
32907;DHT22;19259;51.590;5.320;2022-08-19T04:26:19;17.50;99.90
32907;DHT22;19259;51.590;5.320;2022-08-19T04:28:47;17.40;99.90
32907;DHT22;19259;51.590;5.320;2022-08-19T04:31:21;17.50;99.90
32907;DHT22;19259;51.590;5.320;2022-08-19T04:33:48;17.50;99.90
32907;DHT22;19259;51.590;5.320;2022-08-19T04:36:18;17.30;99.90
32907;DHT22;19259;51.590;5.320;2022-08-19T04:38:50;17.40;99.90
32907;DHT22;19259;51.590;5.320;2022-08-19T04:41:17;17.40;99.90
32907;DHT22;19259;51.590;5.320;2022-08-19T04:44:03;17.40;99.90
32907;DHT22;19259;51.590;5.320;2022-08-19T04:46:32;17.30;99.90
32907;DHT22;19259;51.590;5.320;2022-08-19T04:49:00;17.40;99.90
32907;DHT22;19259;51.590;5.320;2022-08-19T04:51:28;17.40;99.90
32907;DHT22;19259;51.590;5.320;2022-08-19T04:53:58;17.30;99.90
32907;DHT22;19259;51.590;5.320;2022-08-19T04:56:28;17.40;99.90
32907;DHT22;19259;51.590;5.320;2022-08-19T04:58:56;17.50;99.90
32907;DHT22;19259;51.590;5.320;2022-08-19T05:01:26;17.50;99.90
32907;DHT22;19259;51.590;5.320;2022-08-19T05:03:55;17.60;99.90
32907;DHT22;19259;51.590;5.320;2022-08-19T05:06:24;17.60;99.90
32907;DHT22;19259;51.590;5.320;2022-08-19T05:08:51;17.60;99.90
32907;DHT22;19259;51.590;5.320;2022-08-19T05:11:22;17.50;99.90
32907;DHT22;19259;51.590;5.320;2022-08-19T05:13:50;17.50;99.90
32907;DHT22;19259;51.590;5.320;2022-08-19T05:16:20;17.50;99.90
32907;DHT22;19259;51.590;5.320;2022-08-19T05:18:49;17.50;99.90
32907;DHT22;19259;51.590;5.320;2022-08-19T05:21:35;17.50;99.90
32907;DHT22;19259;51.590;5.320;2022-08-19T05:24:22;17.70;99.90
32907;DHT22;19259;51.590;5.320;2022-08-19T05:26:51;17.70;99.90
32907;DHT22;19259;51.590;5.320;2022-08-19T05:29:24;17.60;99.90
32907;DHT22;19259;51.590;5.320;2022-08-19T05:31:53;17.70;99.90
32907;DHT22;19259;51.590;5.320;2022-08-19T05:34:23;17.90;99.90
32907;DHT22;19259;51.590;5.320;2022-08-19T05:36:58;18.10;99.90
32907;DHT22;19259;51.590;5.320;2022-08-19T05:39:31;18.00;99.90
32907;DHT22;19259;51.590;5.320;2022-08-19T05:42:05;17.90;99.90
32907;DHT22;19259;51.590;5.320;2022-08-19T05:44:36;17.80;99.90
32907;DHT22;19259;51.590;5.320;2022-08-19T05:47:05;18.00;99.90
32907;DHT22;19259;51.590;5.320;2022-08-19T05:49:35;18.10;99.90
32907;DHT22;19259;51.590;5.320;2022-08-19T05:52:06;18.20;99.90
32907;DHT22;19259;51.590;5.320;2022-08-19T05:54:39;18.20;99.90
32907;DHT22;19259;51.590;5.320;2022-08-19T05:57:04;18.40;99.90
32907;DHT22;19259;51.590;5.320;2022-08-19T05:59:32;18.30;99.90
32907;DHT22;19259;51.590;5.320;2022-08-19T06:02:03;18.40;99.90
32907;DHT22;19259;51.590;5.320;2022-08-19T06:04:32;18.50;99.90
32907;DHT22;19259;51.590;5.320;2022-08-19T06:07:00;18.60;99.90
32907;DHT22;19259;51.590;5.320;2022-08-19T06:09:28;18.80;99.90
32907;DHT22;19259;51.590;5.320;2022-08-19T06:11:58;18.80;99.90
32907;DHT22;19259;51.590;5.320;2022-08-19T06:14:29;18.70;99.90
32907;DHT22;19259;51.590;5.320;2022-08-19T06:16:58;18.90;99.90
32907;DHT22;19259;51.590;5.320;2022-08-19T06:19:29;18.80;99.90
32907;DHT22;19259;51.590;5.320;2022-08-19T06:22:00;19.20;99.90
32907;DHT22;19259;51.590;5.320;2022-08-19T06:24:29;19.20;99.90
32907;DHT22;19259;51.590;5.320;2022-08-19T06:26:58;19.10;99.90
32907;DHT22;19259;51.590;5.320;2022-08-19T06:29:27;19.20;99.90
32907;DHT22;19259;51.590;5.320;2022-08-19T06:31:58;19.20;99.90
32907;DHT22;19259;51.590;5.320;2022-08-19T06:34:28;19.20;99.90
32907;DHT22;19259;51.590;5.320;2022-08-19T06:36:58;19.20;99.90
32907;DHT22;19259;51.590;5.320;2022-08-19T06:39:32;19.50;99.90
32907;DHT22;19259;51.590;5.320;2022-08-19T06:42:02;19.50;99.90
32907;DHT22;19259;51.590;5.320;2022-08-19T06:44:34;19.50;99.90
32907;DHT22;19259;51.590;5.320;2022-08-19T06:47:05;19.40;99.90
32907;DHT22;19259;51.590;5.320;2022-08-19T06:49:34;19.60;99.90
32907;DHT22;19259;51.590;5.320;2022-08-19T06:52:04;19.40;99.90
32907;DHT22;19259;51.590;5.320;2022-08-19T06:54:32;19.40;99.90
32907;DHT22;19259;51.590;5.320;2022-08-19T06:57:00;19.50;99.90
32907;DHT22;19259;51.590;5.320;2022-08-19T06:59:29;19.60;99.90
32907;DHT22;19259;51.590;5.320;2022-08-19T07:02:02;19.70;99.90
32907;DHT22;19259;51.590;5.320;2022-08-19T07:04:31;19.70;99.90
32907;DHT22;19259;51.590;5.320;2022-08-19T07:07:02;19.60;99.90
32907;DHT22;19259;51.590;5.320;2022-08-19T07:09:29;19.80;99.90
32907;DHT22;19259;51.590;5.320;2022-08-19T07:11:57;19.80;99.90
32907;DHT22;19259;51.590;5.320;2022-08-19T07:14:26;19.70;99.90
32907;DHT22;19259;51.590;5.320;2022-08-19T07:16:55;19.60;99.90
32907;DHT22;19259;51.590;5.320;2022-08-19T07:19:28;19.80;99.90
32907;DHT22;19259;51.590;5.320;2022-08-19T07:21:56;19.80;99.90
32907;DHT22;19259;51.590;5.320;2022-08-19T07:24:25;19.80;99.90
32907;DHT22;19259;51.590;5.320;2022-08-19T07:26:54;19.80;99.90
32907;DHT22;19259;51.590;5.320;2022-08-19T07:29:23;19.80;99.90
32907;DHT22;19259;51.590;5.320;2022-08-19T07:31:52;19.90;99.90
32907;DHT22;19259;51.590;5.320;2022-08-19T07:34:21;20.10;99.90
32907;DHT22;19259;51.590;5.320;2022-08-19T07:36:50;20.10;99.90
32907;DHT22;19259;51.590;5.320;2022-08-19T07:39:26;20.10;99.90
32907;DHT22;19259;51.590;5.320;2022-08-19T07:41:49;20.00;99.90
32907;DHT22;19259;51.590;5.320;2022-08-19T07:44:18;20.10;99.90
32907;DHT22;19259;51.590;5.320;2022-08-19T07:46:50;20.20;99.90
32907;DHT22;19259;51.590;5.320;2022-08-19T07:49:18;20.30;99.90
32907;DHT22;19259;51.590;5.320;2022-08-19T07:51:49;20.20;99.90
32907;DHT22;19259;51.590;5.320;2022-08-19T07:54:19;20.20;99.90
32907;DHT22;19259;51.590;5.320;2022-08-19T07:56:47;20.20;99.90
32907;DHT22;19259;51.590;5.320;2022-08-19T07:59:17;20.40;99.90
32907;DHT22;19259;51.590;5.320;2022-08-19T08:01:46;20.50;99.90
32907;DHT22;19259;51.590;5.320;2022-08-19T08:04:14;20.50;99.90
32907;DHT22;19259;51.590;5.320;2022-08-19T08:06:59;20.40;99.90
32907;DHT22;19259;51.590;5.320;2022-08-19T08:09:45;20.40;99.90
32907;DHT22;19259;51.590;5.320;2022-08-19T08:14:51;20.30;99.90
32907;DHT22;19259;51.590;5.320;2022-08-19T08:17:21;20.50;99.90
32907;DHT22;19259;51.590;5.320;2022-08-19T08:19:50;20.70;99.90
32907;DHT22;19259;51.590;5.320;2022-08-19T08:22:20;20.50;99.90
32907;DHT22;19259;51.590;5.320;2022-08-19T08:25:10;20.50;99.90
32907;DHT22;19259;51.590;5.320;2022-08-19T08:27:40;20.60;99.90
32907;DHT22;19259;51.590;5.320;2022-08-19T08:30:19;20.60;99.90
32907;DHT22;19259;51.590;5.320;2022-08-19T08:32:42;20.70;99.90
32907;DHT22;19259;51.590;5.320;2022-08-19T08:35:13;20.70;99.90
32907;DHT22;19259;51.590;5.320;2022-08-19T08:37:41;20.90;99.90
32907;DHT22;19259;51.590;5.320;2022-08-19T08:42:44;21.00;99.90
32907;DHT22;19259;51.590;5.320;2022-08-19T08:45:13;21.10;99.90
32907;DHT22;19259;51.590;5.320;2022-08-19T08:47:45;21.10;99.90
32907;DHT22;19259;51.590;5.320;2022-08-19T08:50:25;21.00;99.90
32907;DHT22;19259;51.590;5.320;2022-08-19T08:52:54;20.90;99.90
32907;DHT22;19259;51.590;5.320;2022-08-19T08:55:28;20.90;99.90
32907;DHT22;19259;51.590;5.320;2022-08-19T08:58:17;20.90;99.90
32907;DHT22;19259;51.590;5.320;2022-08-19T09:00:40;21.10;99.90
32907;DHT22;19259;51.590;5.320;2022-08-19T09:03:10;21.20;99.90
32907;DHT22;19259;51.590;5.320;2022-08-19T09:08:25;21.10;99.90
32907;DHT22;19259;51.590;5.320;2022-08-19T09:10:52;21.20;99.90
32907;DHT22;19259;51.590;5.320;2022-08-19T09:13:53;21.30;99.90
32907;DHT22;19259;51.590;5.320;2022-08-19T09:16:14;21.20;99.90
32907;DHT22;19259;51.590;5.320;2022-08-19T09:18:45;21.10;99.90
32907;DHT22;19259;51.590;5.320;2022-08-19T09:21:15;21.10;99.90
32907;DHT22;19259;51.590;5.320;2022-08-19T09:23:48;21.20;99.90
32907;DHT22;19259;51.590;5.320;2022-08-19T09:26:15;21.10;99.90
32907;DHT22;19259;51.590;5.320;2022-08-19T09:28:45;21.20;99.90
32907;DHT22;19259;51.590;5.320;2022-08-19T09:31:15;21.40;99.90
32907;DHT22;19259;51.590;5.320;2022-08-19T09:33:43;21.50;99.90
32907;DHT22;19259;51.590;5.320;2022-08-19T09:36:12;21.60;99.90
32907;DHT22;19259;51.590;5.320;2022-08-19T09:38:40;21.60;99.90
32907;DHT22;19259;51.590;5.320;2022-08-19T09:41:17;21.50;99.90
32907;DHT22;19259;51.590;5.320;2022-08-19T09:43:41;21.60;99.90
32907;DHT22;19259;51.590;5.320;2022-08-19T09:46:09;21.40;99.90
32907;DHT22;19259;51.590;5.320;2022-08-19T09:48:37;21.50;99.90
32907;DHT22;19259;51.590;5.320;2022-08-19T09:51:07;21.50;99.90
32907;DHT22;19259;51.590;5.320;2022-08-19T09:53:36;21.60;99.90
32907;DHT22;19259;51.590;5.320;2022-08-19T09:56:05;21.20;99.90
32907;DHT22;19259;51.590;5.320;2022-08-19T09:58:33;21.20;99.90
32907;DHT22;19259;51.590;5.320;2022-08-19T10:01:04;21.10;99.90
32907;DHT22;19259;51.590;5.320;2022-08-19T10:03:33;21.10;99.90
32907;DHT22;19259;51.590;5.320;2022-08-19T10:06:03;21.20;99.90
32907;DHT22;19259;51.590;5.320;2022-08-19T10:08:33;21.40;99.90
32907;DHT22;19259;51.590;5.320;2022-08-19T10:11:03;21.40;99.90
32907;DHT22;19259;51.590;5.320;2022-08-19T10:13:31;21.40;99.90
32907;DHT22;19259;51.590;5.320;2022-08-19T10:16:06;21.50;99.90
32907;DHT22;19259;51.590;5.320;2022-08-19T10:18:35;21.40;99.90
32907;DHT22;19259;51.590;5.320;2022-08-19T10:21:09;21.50;99.90
32907;DHT22;19259;51.590;5.320;2022-08-19T10:23:42;21.60;99.90
32907;DHT22;19259;51.590;5.320;2022-08-19T10:26:20;21.60;99.90
32907;DHT22;19259;51.590;5.320;2022-08-19T10:28:43;21.50;99.90
32907;DHT22;19259;51.590;5.320;2022-08-19T10:31:14;21.70;99.90
32907;DHT22;19259;51.590;5.320;2022-08-19T10:33:42;21.70;99.90
32907;DHT22;19259;51.590;5.320;2022-08-19T10:36:17;21.90;99.90
32907;DHT22;19259;51.590;5.320;2022-08-19T10:38:48;22.10;99.90
32907;DHT22;19259;51.590;5.320;2022-08-19T10:41:21;22.20;99.90
32907;DHT22;19259;51.590;5.320;2022-08-19T10:43:57;22.30;99.90
32907;DHT22;19259;51.590;5.320;2022-08-19T10:46:27;22.40;99.90
32907;DHT22;19259;51.590;5.320;2022-08-19T10:48:56;22.40;99.90
32907;DHT22;19259;51.590;5.320;2022-08-19T10:51:24;22.50;99.90
32907;DHT22;19259;51.590;5.320;2022-08-19T10:54:10;22.80;99.90
32907;DHT22;19259;51.590;5.320;2022-08-19T10:56:38;22.70;99.90
32907;DHT22;19259;51.590;5.320;2022-08-19T10:59:27;22.80;99.90
32907;DHT22;19259;51.590;5.320;2022-08-19T11:02:00;22.80;99.90
32907;DHT22;19259;51.590;5.320;2022-08-19T11:04:28;23.00;99.90
32907;DHT22;19259;51.590;5.320;2022-08-19T11:06:56;23.00;99.90
32907;DHT22;19259;51.590;5.320;2022-08-19T11:09:25;22.90;99.90
32907;DHT22;19259;51.590;5.320;2022-08-19T11:11:56;23.00;99.90
32907;DHT22;19259;51.590;5.320;2022-08-19T11:14:24;23.00;99.90
32907;DHT22;19259;51.590;5.320;2022-08-19T11:16:52;23.20;99.90
32907;DHT22;19259;51.590;5.320;2022-08-19T11:19:22;23.10;99.90
32907;DHT22;19259;51.590;5.320;2022-08-19T11:21:51;23.30;99.90
32907;DHT22;19259;51.590;5.320;2022-08-19T11:24:24;23.30;99.90
32907;DHT22;19259;51.590;5.320;2022-08-19T11:26:53;23.10;99.90
32907;DHT22;19259;51.590;5.320;2022-08-19T11:29:25;23.20;99.90
32907;DHT22;19259;51.590;5.320;2022-08-19T11:31:54;23.40;99.90
32907;DHT22;19259;51.590;5.320;2022-08-19T11:34:24;23.60;99.90
32907;DHT22;19259;51.590;5.320;2022-08-19T11:36:55;23.70;99.90
32907;DHT22;19259;51.590;5.320;2022-08-19T11:39:28;23.90;99.90
32907;DHT22;19259;51.590;5.320;2022-08-19T11:41:58;23.90;99.90
32907;DHT22;19259;51.590;5.320;2022-08-19T11:44:27;23.90;99.90
32907;DHT22;19259;51.590;5.320;2022-08-19T11:46:56;23.90;99.90
32907;DHT22;19259;51.590;5.320;2022-08-19T11:49:24;23.90;99.90
32907;DHT22;19259;51.590;5.320;2022-08-19T11:51:51;23.80;99.90
32907;DHT22;19259;51.590;5.320;2022-08-19T11:54:19;23.90;99.90
32907;DHT22;19259;51.590;5.320;2022-08-19T11:56:47;24.10;99.90
32907;DHT22;19259;51.590;5.320;2022-08-19T11:59:15;23.60;99.90
32907;DHT22;19259;51.590;5.320;2022-08-19T12:01:43;23.90;99.90
32907;DHT22;19259;51.590;5.320;2022-08-19T12:04:11;23.80;99.90
32907;DHT22;19259;51.590;5.320;2022-08-19T12:06:40;23.70;99.90
32907;DHT22;19259;51.590;5.320;2022-08-19T12:09:10;23.80;99.90
32907;DHT22;19259;51.590;5.320;2022-08-19T12:11:39;24.00;99.90
32907;DHT22;19259;51.590;5.320;2022-08-19T12:14:09;24.00;99.90
32907;DHT22;19259;51.590;5.320;2022-08-19T12:16:37;23.80;99.90
32907;DHT22;19259;51.590;5.320;2022-08-19T12:19:05;23.90;99.90
32907;DHT22;19259;51.590;5.320;2022-08-19T12:21:35;24.10;99.90
32907;DHT22;19259;51.590;5.320;2022-08-19T12:24:04;24.20;99.90
32907;DHT22;19259;51.590;5.320;2022-08-19T12:26:32;24.40;99.90
32907;DHT22;19259;51.590;5.320;2022-08-19T12:29:00;24.50;99.90
32907;DHT22;19259;51.590;5.320;2022-08-19T12:31:28;24.50;99.90
32907;DHT22;19259;51.590;5.320;2022-08-19T12:33:56;24.70;99.90
32907;DHT22;19259;51.590;5.320;2022-08-19T12:36:24;24.70;99.90
32907;DHT22;19259;51.590;5.320;2022-08-19T12:38:52;24.60;99.90
32907;DHT22;19259;51.590;5.320;2022-08-19T12:41:20;24.30;99.90
32907;DHT22;19259;51.590;5.320;2022-08-19T12:43:49;24.30;99.90
32907;DHT22;19259;51.590;5.320;2022-08-19T12:46:18;24.20;99.90
32907;DHT22;19259;51.590;5.320;2022-08-19T12:48:46;24.00;99.90
32907;DHT22;19259;51.590;5.320;2022-08-19T12:51:16;23.80;99.90
32907;DHT22;19259;51.590;5.320;2022-08-19T12:53:46;23.70;99.90
32907;DHT22;19259;51.590;5.320;2022-08-19T12:56:14;23.60;99.90
32907;DHT22;19259;51.590;5.320;2022-08-19T12:58:45;23.30;99.90
32907;DHT22;19259;51.590;5.320;2022-08-19T13:01:16;23.40;99.90
32907;DHT22;19259;51.590;5.320;2022-08-19T13:03:45;23.50;99.90
32907;DHT22;19259;51.590;5.320;2022-08-19T13:06:14;23.40;99.90
32907;DHT22;19259;51.590;5.320;2022-08-19T13:08:41;23.40;99.90
32907;DHT22;19259;51.590;5.320;2022-08-19T13:11:15;23.50;99.90
32907;DHT22;19259;51.590;5.320;2022-08-19T13:13:45;23.30;99.90
32907;DHT22;19259;51.590;5.320;2022-08-19T13:16:13;23.30;99.90
32907;DHT22;19259;51.590;5.320;2022-08-19T13:18:42;23.20;99.90
32907;DHT22;19259;51.590;5.320;2022-08-19T13:21:11;23.10;99.90
32907;DHT22;19259;51.590;5.320;2022-08-19T13:23:40;22.90;99.90
32907;DHT22;19259;51.590;5.320;2022-08-19T13:26:09;23.10;99.90
32907;DHT22;19259;51.590;5.320;2022-08-19T13:28:37;23.10;99.90
32907;DHT22;19259;51.590;5.320;2022-08-19T13:31:24;23.30;99.90
32907;DHT22;19259;51.590;5.320;2022-08-19T13:34:10;23.40;99.90
32907;DHT22;19259;51.590;5.320;2022-08-19T13:36:38;23.60;99.90
32907;DHT22;19259;51.590;5.320;2022-08-19T13:39:07;23.80;99.90
32907;DHT22;19259;51.590;5.320;2022-08-19T13:41:36;23.80;99.90
32907;DHT22;19259;51.590;5.320;2022-08-19T13:44:04;23.80;99.90
32907;DHT22;19259;51.590;5.320;2022-08-19T13:46:33;23.90;99.90
32907;DHT22;19259;51.590;5.320;2022-08-19T13:49:00;23.80;99.90
32907;DHT22;19259;51.590;5.320;2022-08-19T13:51:28;23.80;99.90
32907;DHT22;19259;51.590;5.320;2022-08-19T13:53:57;23.70;99.90
32907;DHT22;19259;51.590;5.320;2022-08-19T13:56:24;23.60;99.90
32907;DHT22;19259;51.590;5.320;2022-08-19T13:58:52;23.50;99.90
32907;DHT22;19259;51.590;5.320;2022-08-19T14:01:23;23.60;99.90
32907;DHT22;19259;51.590;5.320;2022-08-19T14:03:52;23.80;99.90
32907;DHT22;19259;51.590;5.320;2022-08-19T14:06:20;23.90;99.90
32907;DHT22;19259;51.590;5.320;2022-08-19T14:08:49;24.00;99.90
32907;DHT22;19259;51.590;5.320;2022-08-19T14:11:16;24.10;99.90
32907;DHT22;19259;51.590;5.320;2022-08-19T14:13:44;24.00;99.90
32907;DHT22;19259;51.590;5.320;2022-08-19T14:16:13;24.30;99.90
32907;DHT22;19259;51.590;5.320;2022-08-19T14:18:41;24.60;99.90
32907;DHT22;19259;51.590;5.320;2022-08-19T14:21:15;24.80;99.90
32907;DHT22;19259;51.590;5.320;2022-08-19T14:23:44;24.70;99.90
32907;DHT22;19259;51.590;5.320;2022-08-19T14:26:13;24.80;99.90
32907;DHT22;19259;51.590;5.320;2022-08-19T14:28:42;24.70;99.90
32907;DHT22;19259;51.590;5.320;2022-08-19T14:31:12;24.90;99.90
32907;DHT22;19259;51.590;5.320;2022-08-19T14:33:41;24.90;99.90
32907;DHT22;19259;51.590;5.320;2022-08-19T14:36:09;24.70;99.90
32907;DHT22;19259;51.590;5.320;2022-08-19T14:38:36;24.70;99.90
32907;DHT22;19259;51.590;5.320;2022-08-19T14:41:16;24.70;99.90
32907;DHT22;19259;51.590;5.320;2022-08-19T14:43:45;24.90;99.90
32907;DHT22;19259;51.590;5.320;2022-08-19T14:46:18;24.90;99.90
32907;DHT22;19259;51.590;5.320;2022-08-19T14:48:47;24.90;99.90
32907;DHT22;19259;51.590;5.320;2022-08-19T14:51:15;24.90;99.90
32907;DHT22;19259;51.590;5.320;2022-08-19T14:53:46;24.90;99.90
32907;DHT22;19259;51.590;5.320;2022-08-19T14:56:20;24.70;99.90
32907;DHT22;19259;51.590;5.320;2022-08-19T14:58:47;24.60;99.90
32907;DHT22;19259;51.590;5.320;2022-08-19T15:01:26;24.50;99.90
32907;DHT22;19259;51.590;5.320;2022-08-19T15:03:50;24.30;99.90
32907;DHT22;19259;51.590;5.320;2022-08-19T15:06:19;24.20;99.90
32907;DHT22;19259;51.590;5.320;2022-08-19T15:08:48;24.10;99.90
32907;DHT22;19259;51.590;5.320;2022-08-19T15:11:20;24.00;99.90
32907;DHT22;19259;51.590;5.320;2022-08-19T15:13:49;24.00;99.90
32907;DHT22;19259;51.590;5.320;2022-08-19T15:16:18;23.90;99.90
32907;DHT22;19259;51.590;5.320;2022-08-19T15:18:53;23.80;99.90
32907;DHT22;19259;51.590;5.320;2022-08-19T15:21:17;23.70;99.90
32907;DHT22;19259;51.590;5.320;2022-08-19T15:23:46;23.70;99.90
32907;DHT22;19259;51.590;5.320;2022-08-19T15:26:15;23.60;99.90
32907;DHT22;19259;51.590;5.320;2022-08-19T15:28:44;23.50;99.90
32907;DHT22;19259;51.590;5.320;2022-08-19T15:31:18;23.10;99.90
32907;DHT22;19259;51.590;5.320;2022-08-19T15:33:42;22.90;99.90
32907;DHT22;19259;51.590;5.320;2022-08-19T15:36:11;22.70;99.90
32907;DHT22;19259;51.590;5.320;2022-08-19T15:38:39;22.70;99.90
32907;DHT22;19259;51.590;5.320;2022-08-19T15:41:22;22.60;99.90
32907;DHT22;19259;51.590;5.320;2022-08-19T15:43:59;22.50;99.90
32907;DHT22;19259;51.590;5.320;2022-08-19T15:46:28;22.10;99.90
32907;DHT22;19259;51.590;5.320;2022-08-19T15:48:58;22.10;99.90
32907;DHT22;19259;51.590;5.320;2022-08-19T15:51:28;22.20;99.90
32907;DHT22;19259;51.590;5.320;2022-08-19T15:53:58;22.40;99.90
32907;DHT22;19259;51.590;5.320;2022-08-19T15:56:26;22.60;99.90
32907;DHT22;19259;51.590;5.320;2022-08-19T15:58:55;22.40;99.90